createdAt,value
2023-04-18T00:00:19.246Z,100370.66
2023-04-18T00:03:21.943Z,100372.53
2023-04-18T00:06:23.703Z,100379.03
2023-04-18T00:09:25.686Z,100369.66
2023-04-18T00:12:27.955Z,100373.38
2023-04-18T00:15:30.278Z,100340.47
2023-04-18T00:18:31.861Z,100364.59
2023-04-18T00:21:33.514Z,100350.75
2023-04-18T00:24:35.118Z,100363.22
2023-04-18T00:27:41.136Z,100383.97
2023-04-18T00:30:42.811Z,100376.28
2023-04-18T00:33:44.532Z,100379.25
2023-04-18T00:36:46.111Z,100377.59
2023-04-18T00:39:47.715Z,100364.28
2023-04-18T00:42:49.302Z,100378.88
2023-04-18T00:45:50.934Z,100394.22
2023-04-18T00:48:52.725Z,100388.94
2023-04-18T00:51:56.736Z,100382.94
2023-04-18T00:54:58.338Z,100367.75
2023-04-18T00:58:00.284Z,100385.19
2023-04-18T01:01:01.899Z,100383.09
2023-04-18T01:04:03.763Z,100381.44
2023-04-18T01:07:06.053Z,100383.38
2023-04-18T01:10:10.325Z,100361.22
2023-04-18T01:13:14.227Z,100383.44
2023-04-18T01:16:15.804Z,100379.28
2023-04-18T01:19:17.520Z,100376.28
2023-04-18T01:22:20.296Z,100369.88
2023-04-18T01:25:21.978Z,100366.81
2023-04-18T01:28:23.633Z,100379.44
2023-04-18T01:31:25.250Z,100380.97
2023-04-18T01:34:26.848Z,100377.78
2023-04-18T01:37:28.423Z,100388.38
2023-04-18T01:40:30.327Z,100376.41
2023-04-18T01:43:31.930Z,100373.94
2023-04-18T01:46:34.275Z,100366.00
2023-04-18T01:49:35.882Z,100378.31
2023-04-18T01:52:37.453Z,100358.09
2023-04-18T01:55:38.981Z,100386.56
2023-04-18T01:58:41.701Z,100373.63
2023-04-18T02:01:43.366Z,100373.47
2023-04-18T02:04:44.981Z,100372.34
2023-04-18T02:07:47.729Z,100386.91
2023-04-18T02:10:49.301Z,100393.06
2023-04-18T02:13:50.874Z,100393.91
2023-04-18T02:16:52.456Z,100395.03
2023-04-18T02:19:54.040Z,100376.00
2023-04-18T02:22:55.681Z,100376.28
2023-04-18T02:25:57.250Z,100379.28
2023-04-18T02:28:58.868Z,100379.16
2023-04-18T02:32:00.741Z,100399.56
2023-04-18T02:35:02.340Z,100395.78
2023-04-18T02:38:03.874Z,100400.63
2023-04-18T02:41:05.530Z,100406.75
2023-04-18T02:44:08.661Z,100386.31
2023-04-18T02:47:10.394Z,100404.81
2023-04-18T02:50:12.001Z,100401.31
2023-04-18T02:53:13.603Z,100406.69
2023-04-18T02:56:17.157Z,100409.03
2023-04-18T02:59:18.753Z,100407.09
2023-04-18T03:02:21.002Z,100407.50
2023-04-18T03:05:22.804Z,100391.28
2023-04-18T03:08:24.509Z,100396.09
2023-04-18T03:11:26.053Z,100410.41
2023-04-18T03:14:27.632Z,100383.25
2023-04-18T03:17:29.334Z,100396.41
2023-04-18T03:20:30.896Z,100408.03
2023-04-18T03:23:32.586Z,100392.25
2023-04-18T03:26:34.165Z,100405.03
2023-04-18T03:29:35.797Z,100404.13
2023-04-18T03:32:38.607Z,100405.75
2023-04-18T03:35:40.633Z,100400.25
2023-04-18T03:38:42.383Z,100404.72
2023-04-18T03:41:43.924Z,100404.47
2023-04-18T03:44:45.474Z,100410.44
2023-04-18T03:47:47.075Z,100376.56
2023-04-18T03:50:48.690Z,100410.13
2023-04-18T03:53:50.399Z,100408.34
2023-04-18T03:56:52.440Z,100411.28
2023-04-18T03:59:54.177Z,100416.13
2023-04-18T04:02:56.151Z,100419.88
2023-04-18T04:05:58.037Z,100421.31
2023-04-18T04:08:59.615Z,100428.47
2023-04-18T04:12:02.258Z,100430.72
2023-04-18T04:15:04.091Z,100417.47
2023-04-18T04:18:06.527Z,100436.00
2023-04-18T04:21:08.160Z,100435.31
2023-04-18T04:24:09.751Z,100422.00
2023-04-18T04:27:12.605Z,100442.28
2023-04-18T04:30:14.347Z,100443.63
2023-04-18T04:33:19.709Z,100442.09
2023-04-18T04:36:23.119Z,100435.31
2023-04-18T04:39:24.786Z,100425.34
2023-04-18T04:42:26.899Z,100446.97
2023-04-18T04:45:28.611Z,100449.50
2023-04-18T04:48:30.242Z,100449.03
2023-04-18T04:51:31.980Z,100451.38
2023-04-18T04:54:33.530Z,100461.91
2023-04-18T04:57:35.828Z,100461.09
2023-04-18T05:00:37.435Z,100464.72
2023-04-18T05:03:39.138Z,100470.53
2023-04-18T05:06:40.952Z,100466.66
2023-04-18T05:09:42.536Z,100475.84
2023-04-18T05:12:44.121Z,100475.53
2023-04-18T05:15:45.846Z,100478.41
2023-04-18T05:18:47.438Z,100477.84
2023-04-18T05:21:49.015Z,100480.56
2023-04-18T05:24:50.609Z,100470.00
2023-04-18T05:27:52.285Z,100467.28
2023-04-18T05:31:01.100Z,100482.09
2023-04-18T05:34:02.806Z,100487.47
2023-04-18T05:37:04.412Z,100490.41
2023-04-18T05:40:06.898Z,100490.28
2023-04-18T05:43:08.455Z,100487.44
2023-04-18T05:46:10.185Z,100496.47
2023-04-18T05:49:12.133Z,100463.41
2023-04-18T05:52:13.731Z,100497.91
2023-04-18T05:55:15.406Z,100500.56
2023-04-18T05:58:17.022Z,100469.69
2023-04-18T06:01:18.823Z,100488.75
2023-04-18T06:04:21.280Z,100501.16
2023-04-18T06:07:25.230Z,100497.31
2023-04-18T06:10:26.872Z,100510.03
2023-04-18T06:13:28.523Z,100506.00
2023-04-18T06:16:30.313Z,100507.69
2023-04-18T06:19:31.893Z,100513.06
2023-04-18T06:22:36.398Z,100515.53
2023-04-18T06:25:38.049Z,100504.84
2023-04-18T06:28:39.715Z,100516.72
2023-04-18T06:31:42.210Z,100516.28
2023-04-18T06:34:44.856Z,100533.22
2023-04-18T06:37:46.570Z,100535.03
2023-04-18T06:40:48.296Z,100526.75
2023-04-18T06:44:14.511Z,100539.44
2023-04-18T06:47:11.542Z,100544.25
2023-04-18T06:50:13.698Z,100535.22
2023-04-18T06:53:15.263Z,100548.81
2023-04-18T06:56:16.866Z,100537.88
2023-04-18T06:59:19.313Z,100525.50
2023-04-18T07:02:20.927Z,100550.69
2023-04-18T07:05:22.677Z,100547.03
2023-04-18T07:08:24.235Z,100552.91
2023-04-18T07:11:26.117Z,100545.22
2023-04-18T07:14:28.467Z,100559.91
2023-04-18T07:17:30.113Z,100550.84
2023-04-18T07:20:31.715Z,100561.34
2023-04-18T07:23:33.339Z,100544.72
2023-04-18T07:26:34.998Z,100534.94
2023-04-18T07:29:36.582Z,100542.00
2023-04-18T07:32:38.285Z,100573.38
2023-04-18T07:35:40.516Z,100575.28
2023-04-18T07:38:42.597Z,100546.53
2023-04-18T07:41:44.177Z,100570.06
2023-04-18T07:44:45.890Z,100563.59
2023-04-18T07:47:47.568Z,100569.56
2023-04-18T07:50:49.441Z,100562.75
2023-04-18T07:53:51.252Z,100563.94
2023-04-18T07:56:52.951Z,100567.03
2023-04-18T07:59:54.491Z,100562.50
2023-04-18T08:02:56.576Z,100578.84
2023-04-18T08:05:58.246Z,100580.09
2023-04-18T08:09:03.154Z,100567.16
2023-04-18T08:12:05.162Z,100577.22
2023-04-18T08:15:07.462Z,100573.59
2023-04-18T08:18:09.053Z,100576.22
2023-04-18T08:21:10.721Z,100571.84
2023-04-18T08:24:12.340Z,100573.38
2023-04-18T08:27:14.052Z,100580.75
2023-04-18T08:30:15.670Z,100556.00
2023-04-18T08:33:18.430Z,100574.94
2023-04-18T08:36:21.259Z,100571.47
2023-04-18T08:39:24.849Z,100570.28
2023-04-18T08:42:27.638Z,100561.44
2023-04-18T08:45:29.591Z,100582.88
2023-04-18T08:48:31.487Z,100588.34
2023-04-18T08:51:41.653Z,100563.31
2023-04-18T08:54:45.272Z,100580.44
2023-04-18T08:57:47.575Z,100583.56
2023-04-18T09:00:55.817Z,100573.97
2023-04-18T09:03:58.298Z,100582.69
2023-04-18T09:07:00.550Z,100590.50
2023-04-18T09:10:02.142Z,100577.94
2023-04-18T09:13:04.453Z,100584.81
2023-04-18T09:16:06.564Z,100581.63
2023-04-18T09:19:18.161Z,100572.00
2023-04-18T09:22:20.854Z,100576.34
2023-04-18T09:25:34.933Z,100581.78
2023-04-18T09:28:37.529Z,100575.91
2023-04-18T09:32:02.207Z,100571.22
2023-04-18T09:35:05.471Z,100581.53
2023-04-18T09:38:07.926Z,100589.38
2023-04-18T09:41:11.433Z,100568.69
2023-04-18T09:44:15.312Z,100577.81
2023-04-18T09:47:17.312Z,100583.13
2023-04-18T09:50:20.856Z,100588.53
2023-04-18T09:53:24.365Z,100593.13
2023-04-18T09:56:29.666Z,100578.34
2023-04-18T09:59:47.778Z,100581.72
2023-04-18T10:02:59.789Z,100578.72
2023-04-18T10:06:01.743Z,100576.97
2023-04-18T10:09:04.369Z,100578.88
2023-04-18T10:12:06.390Z,100561.59
2023-04-18T10:15:11.009Z,100587.53
2023-04-18T10:18:18.847Z,100579.03
2023-04-18T10:21:21.745Z,100578.88
2023-04-18T10:24:45.311Z,100587.19
2023-04-18T10:27:49.590Z,100582.34
2023-04-18T10:30:53.802Z,100575.94
2023-04-18T10:37:06.241Z,100549.31
2023-04-18T10:40:10.342Z,100572.72
2023-04-18T10:43:13.326Z,100561.97
2023-04-18T10:46:30.377Z,100539.84
2023-04-18T10:49:33.436Z,100538.88
2023-04-18T10:52:35.372Z,100546.63
2023-04-18T10:55:39.489Z,100562.06
2023-04-18T10:58:42.474Z,100550.75
2023-04-18T11:01:49.185Z,100551.44
2023-04-18T11:04:59.166Z,100544.19
2023-04-18T11:08:00.769Z,100543.56
2023-04-18T11:11:06.904Z,100537.13
2023-04-18T11:14:08.536Z,100544.13
2023-04-18T11:17:26.507Z,100534.66
2023-04-18T11:20:29.498Z,100540.22
2023-04-18T11:23:31.154Z,100535.34
2023-04-18T11:26:33.423Z,100550.53
2023-04-18T11:29:35.359Z,100549.22
2023-04-18T11:32:37.094Z,100551.22
2023-04-18T11:35:38.794Z,100559.16
2023-04-18T11:38:42.065Z,100527.63
2023-04-18T11:41:50.224Z,100540.41
2023-04-18T11:44:51.829Z,100546.25
2023-04-18T11:47:59.715Z,100546.16
2023-04-18T11:51:01.466Z,100533.75
2023-04-18T11:54:03.206Z,100554.84
2023-04-18T11:57:06.286Z,100539.91
2023-04-18T12:00:12.268Z,100546.19
2023-04-18T12:03:18.783Z,100546.00
2023-04-18T12:06:20.484Z,100545.47
2023-04-18T12:09:24.553Z,100522.75
2023-04-18T12:12:26.123Z,100536.41
2023-04-18T12:15:28.981Z,100554.41
2023-04-18T12:18:31.483Z,100529.81
2023-04-18T12:21:33.148Z,100529.63
2023-04-18T12:24:36.109Z,100533.88
2023-04-18T12:27:58.539Z,100542.38
2023-04-18T12:31:00.485Z,100531.31
2023-04-18T12:34:02.139Z,100519.66
2023-04-18T12:37:05.069Z,100516.38
2023-04-18T12:40:07.843Z,100524.94
2023-04-18T12:43:09.626Z,100533.06
2023-04-18T12:46:11.277Z,100540.56
2023-04-18T12:49:12.909Z,100526.88
2023-04-18T12:52:16.198Z,100526.56
2023-04-18T12:55:17.891Z,100536.53
2023-04-18T12:58:20.647Z,100528.34
2023-04-18T13:01:22.318Z,100527.28
2023-04-18T13:04:24.133Z,100532.38
2023-04-18T13:07:25.883Z,100534.50
2023-04-18T13:10:27.461Z,100527.38
2023-04-18T13:13:29.027Z,100532.94
2023-04-18T13:16:31.242Z,100515.91
2023-04-18T13:19:32.845Z,100522.72
2023-04-18T13:22:34.789Z,100538.28
2023-04-18T13:25:36.428Z,100533.78
2023-04-18T13:28:38.057Z,100520.03
2023-04-18T13:31:39.714Z,100521.31
2023-04-18T13:34:46.484Z,100524.34
2023-04-18T13:37:48.055Z,100535.66
2023-04-18T13:40:55.803Z,100535.81
2023-04-18T13:44:06.276Z,100527.63
2023-04-18T13:47:08.114Z,100519.28
2023-04-18T13:50:10.013Z,100512.09
2023-04-18T13:53:11.715Z,100517.66
2023-04-18T13:56:13.307Z,100527.88
2023-04-18T13:59:15.046Z,100521.41
2023-04-18T14:02:16.989Z,100518.28
2023-04-18T14:05:18.806Z,100519.56
2023-04-18T14:08:21.049Z,100525.19
2023-04-18T14:11:23.045Z,100533.13
2023-04-18T14:14:24.982Z,100520.69
2023-04-18T14:17:26.580Z,100521.53
2023-04-18T14:20:34.286Z,100520.66
2023-04-18T14:23:35.893Z,100494.94
2023-04-18T14:26:37.657Z,100511.63
2023-04-18T14:29:39.308Z,100505.06
2023-04-18T14:32:41.060Z,100484.75
2023-04-18T14:35:43.811Z,100503.19
2023-04-18T14:38:49.522Z,100523.44
2023-04-18T14:41:51.094Z,100528.28
2023-04-18T14:44:52.639Z,100524.16
2023-04-18T14:47:55.817Z,100525.13
2023-04-18T14:51:02.548Z,100517.69
2023-04-18T14:54:04.281Z,100520.78
2023-04-18T14:57:08.251Z,100508.13
2023-04-18T15:00:11.319Z,100520.22
2023-04-18T15:03:13.058Z,100523.72
2023-04-18T15:06:14.725Z,100528.06
2023-04-18T15:09:16.313Z,100531.19
2023-04-18T15:12:18.045Z,100524.03
2023-04-18T15:15:19.797Z,100512.22
2023-04-18T15:18:21.532Z,100521.63
2023-04-18T15:21:23.176Z,100510.94
2023-04-18T15:24:24.758Z,100517.63
2023-04-18T15:27:26.411Z,100535.41
2023-04-18T15:30:28.085Z,100527.41
2023-04-18T15:33:29.759Z,100537.22
2023-04-18T15:36:31.785Z,100535.56
2023-04-18T15:39:33.348Z,100532.63
2023-04-18T15:42:35.168Z,100533.94
2023-04-18T15:45:36.764Z,100531.25
2023-04-18T15:48:38.316Z,100523.41
2023-04-18T15:51:40.367Z,100529.56
2023-04-18T15:54:44.812Z,100529.97
2023-04-18T15:57:46.452Z,100534.00
2023-04-18T16:00:50.092Z,100520.84
2023-04-18T16:03:51.815Z,100536.47
2023-04-18T16:06:53.447Z,100538.06
2023-04-18T16:09:55.018Z,100538.44
2023-04-18T16:12:56.683Z,100543.78
2023-04-18T16:15:58.337Z,100536.84
2023-04-18T16:19:00.806Z,100554.84
2023-04-18T16:22:02.330Z,100552.69
2023-04-18T16:25:05.003Z,100556.72
2023-04-18T16:28:06.645Z,100561.69
2023-04-18T16:31:08.278Z,100550.25
2023-04-18T16:34:09.998Z,100538.09
2023-04-18T16:37:11.839Z,100540.28
2023-04-18T16:40:15.289Z,100567.06
2023-04-18T16:43:16.989Z,100566.13
2023-04-18T16:46:19.161Z,100536.84
2023-04-18T16:49:20.953Z,100530.38
2023-04-18T16:52:23.172Z,100534.50
2023-04-18T16:55:24.824Z,100541.19
2023-04-18T16:58:26.417Z,100559.22
2023-04-18T17:01:28.073Z,100566.50
2023-04-18T17:04:29.994Z,100557.50
2023-04-18T17:07:31.562Z,100556.25
2023-04-18T17:10:33.452Z,100549.66
2023-04-18T17:13:36.065Z,100547.41
2023-04-18T17:16:39.637Z,100539.28
2023-04-18T17:19:41.678Z,100561.28
2023-04-18T17:22:43.630Z,100566.28
2023-04-18T17:25:45.311Z,100568.97
2023-04-18T17:28:46.937Z,100550.88
2023-04-18T17:31:48.553Z,100563.81
2023-04-18T17:34:50.194Z,100543.31
2023-04-18T17:37:52.890Z,100565.38
2023-04-18T17:41:02.140Z,100579.97
2023-04-18T17:44:04.416Z,100576.09
2023-04-18T17:47:06.862Z,100544.09
2023-04-18T17:50:08.873Z,100588.25
2023-04-18T17:53:12.365Z,100588.72
2023-04-18T17:56:13.920Z,100591.69
2023-04-18T17:59:15.923Z,100593.22
2023-04-18T18:02:17.776Z,100594.69
2023-04-18T18:05:19.429Z,100585.44
2023-04-18T18:08:21.929Z,100587.34
2023-04-18T18:11:23.803Z,100579.78
2023-04-18T18:14:26.800Z,100587.16
2023-04-18T18:17:28.973Z,100592.22
2023-04-18T18:20:30.856Z,100579.75
2023-04-18T18:23:32.468Z,100591.31
2023-04-18T18:26:37.372Z,100604.25
2023-04-18T18:29:38.955Z,100607.31
2023-04-18T18:32:40.620Z,100605.84
2023-04-18T18:35:42.228Z,100611.84
2023-04-18T18:38:43.829Z,100611.03
2023-04-18T18:41:45.503Z,100611.25
2023-04-18T18:44:47.098Z,100613.59
2023-04-18T18:47:48.878Z,100616.75
2023-04-18T18:50:51.466Z,100619.25
2023-04-18T18:53:53.102Z,100621.91
2023-04-18T18:56:54.688Z,100612.06
2023-04-18T18:59:56.306Z,100598.44
2023-04-18T19:02:57.994Z,100607.22
2023-04-18T19:06:03.905Z,100623.50
2023-04-18T19:09:05.555Z,100618.97
2023-04-18T19:12:07.428Z,100617.59
2023-04-18T19:15:09.849Z,100611.47
2023-04-18T19:18:12.461Z,100614.50
2023-04-18T19:21:14.066Z,100634.81
2023-04-18T19:24:16.026Z,100638.19
2023-04-18T19:27:17.936Z,100650.94
2023-04-18T19:30:19.695Z,100663.19
2023-04-18T19:33:24.491Z,100672.56
2023-04-18T19:36:26.713Z,100659.69
2023-04-18T19:39:28.641Z,100680.28
2023-04-18T19:42:30.229Z,100680.28
2023-04-18T19:45:31.894Z,100669.78
2023-04-18T19:48:33.658Z,100676.41
2023-04-18T19:51:35.321Z,100671.72
2023-04-18T19:54:36.946Z,100666.09
2023-04-18T19:57:39.648Z,100682.13
2023-04-18T20:00:41.604Z,100673.88
2023-04-18T20:03:43.529Z,100658.59
2023-04-18T20:06:45.406Z,100659.50
2023-04-18T20:09:46.955Z,100668.03
2023-04-18T20:12:50.051Z,100676.69
2023-04-18T20:15:53.345Z,100690.47
2023-04-18T20:18:56.599Z,100681.16
2023-04-18T20:21:58.218Z,100661.09
2023-04-18T20:25:00.964Z,100676.28
2023-04-18T20:28:03.050Z,100684.06
2023-04-18T20:31:04.829Z,100691.78
2023-04-18T20:34:06.706Z,100687.38
2023-04-18T20:37:09.343Z,100684.75
2023-04-18T20:40:11.383Z,100688.22
2023-04-18T20:43:17.326Z,100689.50
2023-04-18T20:46:19.005Z,100673.56
2023-04-18T20:49:20.595Z,100687.84
2023-04-18T20:52:22.521Z,100691.63
2023-04-18T20:55:24.087Z,100692.16
2023-04-18T20:58:25.868Z,100690.34
2023-04-18T21:01:27.491Z,100696.28
2023-04-18T21:04:29.425Z,100664.44
2023-04-18T21:07:32.149Z,100681.19
2023-04-18T21:10:34.086Z,100668.41
2023-04-18T21:13:35.685Z,100672.59
2023-04-18T21:16:39.433Z,100671.72
2023-04-18T21:19:41.095Z,100679.44
2023-04-18T21:22:42.743Z,100670.13
2023-04-18T21:25:44.343Z,100660.84
2023-04-18T21:29:00.139Z,100667.97
2023-04-18T21:32:01.988Z,100664.31
2023-04-18T21:35:03.648Z,100665.72
2023-04-18T21:38:05.347Z,100660.13
2023-04-18T21:41:07.219Z,100651.06
2023-04-18T21:44:08.772Z,100627.94
2023-04-18T21:47:10.401Z,100661.19
2023-04-18T21:50:11.992Z,100652.94
2023-04-18T21:53:13.577Z,100653.09
2023-04-18T21:56:17.012Z,100652.63
2023-04-18T21:59:18.600Z,100650.16
2023-04-18T22:02:20.396Z,100641.13
2023-04-18T22:05:21.993Z,100635.88
2023-04-18T22:08:25.856Z,100642.78
2023-04-18T22:11:28.584Z,100648.72
2023-04-18T22:14:32.069Z,100658.97
2023-04-18T22:17:34.893Z,100658.72
2023-04-18T22:20:37.379Z,100655.72
2023-04-18T22:23:39.038Z,100647.94
2023-04-18T22:26:41.004Z,100646.84
2023-04-18T22:29:42.570Z,100651.59
2023-04-18T22:32:44.194Z,100656.47
2023-04-18T22:35:47.507Z,100643.94
2023-04-18T22:38:49.136Z,100627.41
2023-04-18T22:41:50.691Z,100655.94
2023-04-18T22:44:52.231Z,100638.09
2023-04-18T22:47:53.875Z,100645.31
2023-04-18T22:50:55.553Z,100642.78
2023-04-18T22:53:57.131Z,100640.28
2023-04-18T22:56:58.717Z,100632.06
2023-04-18T23:00:00.294Z,100624.84
2023-04-18T23:03:02.553Z,100612.81
2023-04-18T23:06:07.397Z,100625.88
2023-04-18T23:09:09.775Z,100625.06
2023-04-18T23:12:12.620Z,100626.47
2023-04-18T23:15:14.223Z,100621.06
2023-04-18T23:18:15.842Z,100618.28
2023-04-18T23:21:17.964Z,100619.00
2023-04-18T23:24:19.519Z,100618.16
2023-04-18T23:27:21.130Z,100601.75
2023-04-18T23:30:22.713Z,100607.16
2023-04-18T23:33:24.310Z,100594.78
2023-04-18T23:36:27.374Z,100585.59
2023-04-18T23:39:29.038Z,100600.06
2023-04-18T23:42:30.626Z,100586.03
2023-04-18T23:45:32.218Z,100583.25
2023-04-18T23:48:33.795Z,100591.88
2023-04-18T23:51:35.419Z,100585.34
2023-04-18T23:54:36.986Z,100566.03
2023-04-18T23:57:38.543Z,100576.31
